Time;durP1;ratioP1;P1;durP2;ratioP2;P2;SDS_P1;SDS_P2;PMS_P1;PMS_P2;Temp;Humidity;BMP_temperature;BMP_pressure;BME280_temperature;BME280_humidity;BME280_pressure;Samples;Min_cycle;Max_cycle;Signal;HPM_P1;HPM_P2
2023/01/29 00:02:08;;;;;;;5.80;2.45;;;;;;;20.53;43.34;97820.53;10469984;28;20056;-76
2023/01/29 00:07:29;;;;;;;4.88;2.20;;;;;;;20.53;43.10;97808.91;10477659;28;20510;-76
2023/01/29 00:12:50;;;;;;;4.25;1.98;;;;;;;20.53;43.16;97798.06;10476211;28;20048;-76
2023/01/29 00:18:10;;;;;;;4.72;2.20;;;;;;;20.51;43.28;97798.38;10476266;28;20037;-76
2023/01/29 00:23:29;;;;;;;5.85;2.00;;;;;;;20.48;43.10;97790.88;10476063;28;20041;-76
2023/01/29 00:28:48;;;;;;;6.18;2.35;;;;;;;20.47;43.12;97800.09;10467718;28;20099;-76
2023/01/29 00:34:08;;;;;;;4.95;2.58;;;;;;;20.47;43.27;97800.09;10476366;28;20049;-76
2023/01/29 00:39:37;;;;;;;5.22;2.55;;;;;;;20.44;43.21;97789.06;10476305;28;20041;-76
2023/01/29 00:44:57;;;;;;;5.20;2.80;;;;;;;20.44;43.33;97799.91;10475973;28;20048;-76
2023/01/29 00:50:16;;;;;;;5.38;2.83;;;;;;;20.41;43.47;97795.13;10460680;28;20037;-76
2023/01/29 00:55:36;;;;;;;5.25;2.30;;;;;;;20.39;43.52;97798.13;10474765;28;20484;-76
2023/01/29 01:00:57;;;;;;;4.15;2.10;;;;;;;20.39;43.66;97811.66;10474628;28;20432;-76
2023/01/29 01:06:16;;;;;;;4.38;2.20;;;;;;;20.35;43.60;97797.91;10475029;28;20052;-76
2023/01/29 01:11:36;;;;;;;5.30;2.17;;;;;;;20.34;43.86;97790.88;10474888;28;20472;-76
2023/01/29 01:16:56;;;;;;;4.95;2.03;;;;;;;20.32;43.60;97782.28;10473686;28;20041;-76
2023/01/29 01:22:16;;;;;;;4.47;2.20;;;;;;;20.31;43.66;97779.91;10473454;28;20052;-76
2023/01/29 01:27:39;;;;;;;4.68;2.28;;;;;;;20.29;43.76;97788.31;10454546;28;20052;-76
2023/01/29 01:32:59;;;;;;;4.28;2.10;;;;;;;20.27;43.57;97771.59;10459534;28;20504;-76
2023/01/29 01:38:18;;;;;;;3.78;1.98;;;;;;;20.25;43.58;97773.81;10472983;28;20504;-76
2023/01/29 01:43:53;;;;;;;3.17;1.92;;;;;;;20.24;43.55;97780.31;10459284;28;20053;-76
2023/01/29 01:49:15;;;;;;;3.85;1.77;;;;;;;20.22;43.37;97760.06;10473624;28;20503;-76
2023/01/29 01:54:34;;;;;;;3.83;1.80;;;;;;;20.20;43.42;97762.28;10472464;28;20041;-76
2023/01/29 01:59:58;;;;;;;3.20;1.60;;;;;;;20.19;43.49;97763.38;10458383;28;20041;-76
2023/01/29 02:10:56;;;;;;;2.40;1.50;;;;;;;20.14;43.36;97765.09;10472885;28;20041;-75
2023/01/29 02:16:16;;;;;;;2.95;1.58;;;;;;;20.12;43.38;97758.41;10472680;28;20045;-75
2023/01/29 02:21:48;;;;;;;2.78;1.75;;;;;;;20.10;43.31;97766.03;10472582;28;20052;-76
2023/01/29 02:27:14;;;;;;;3.33;1.75;;;;;;;20.09;43.29;97769.81;10468698;28;20416;-75
2023/01/29 02:32:39;;;;;;;2.85;1.60;;;;;;;20.06;43.27;97752.28;10470964;28;20041;-75
2023/01/29 02:38:16;;;;;;;2.65;1.50;;;;;;;20.04;43.21;97743.69;10471684;28;20500;-75
2023/01/29 02:43:46;;;;;;;3.95;1.70;;;;;;;20.01;43.17;97741.56;10456591;28;20052;-75
2023/01/29 02:49:14;;;;;;;2.40;1.45;;;;;;;19.99;43.26;97741.09;10456267;28;20052;-75
2023/01/29 02:54:43;;;;;;;3.50;1.50;;;;;;;19.97;43.11;97748.69;10455980;28;20059;-75
2023/01/29 03:00:16;;;;;;;3.55;1.80;;;;;;;19.95;43.20;97751.72;10469913;28;20051;-75
2023/01/29 03:05:42;;;;;;;2.35;1.48;;;;;;;19.94;43.26;97762.84;10455495;28;20049;-75
2023/01/29 03:11:04;;;;;;;3.08;1.45;;;;;;;19.92;43.16;97776.66;10470388;28;20400;-75
2023/01/29 03:16:34;;;;;;;3.22;1.52;;;;;;;19.90;43.08;97791.59;10455396;28;20041;-75
2023/01/29 03:21:59;;;;;;;2.42;1.50;;;;;;;19.88;43.10;97786.50;10441120;28;20056;-75
2023/01/29 03:33:04;;;;;;;1.67;1.42;;;;;;;19.83;42.97;97774.97;10468955;28;20048;-75
2023/01/29 03:38:28;;;;;;;2.70;1.63;;;;;;;19.82;43.06;97773.38;10454428;28;20091;-75
2023/01/29 03:44:09;;;;;;;1.73;1.33;;;;;;;19.79;43.03;97772.06;10468402;28;20484;-75
2023/01/29 03:49:37;;;;;;;2.17;1.45;;;;;;;19.78;43.00;97772.38;10454281;28;20040;-75
2023/01/29 03:55:15;;;;;;;2.88;1.60;;;;;;;19.75;43.05;97771.06;10468077;28;20048;-75
2023/01/29 04:00:40;;;;;;;2.63;1.60;;;;;;;19.73;42.92;97759.75;10440368;28;20409;-75
2023/01/29 04:06:11;;;;;;;3.65;1.50;;;;;;;19.70;42.96;97766.53;10454125;28;20049;-76
2023/01/29 04:11:44;;;;;;;1.80;1.20;;;;;;;19.68;42.86;97747.13;10455270;28;20048;-75
2023/01/29 04:17:15;;;;;;;2.13;1.40;;;;;;;19.67;43.11;97766.34;10453807;28;20041;-75
2023/01/29 04:22:47;;;;;;;2.05;1.33;;;;;;;19.66;42.93;97759.31;10467721;28;20507;-75
2023/01/29 04:28:22;;;;;;;2.08;1.42;;;;;;;19.64;42.85;97753.41;10461584;28;20045;-76
2023/01/29 04:34:00;;;;;;;1.52;1.33;;;;;;;19.61;42.77;97744.03;10467110;28;20381;-75
2023/01/29 04:39:24;;;;;;;1.80;1.30;;;;;;;19.59;42.88;97730.00;10467479;28;20049;-75
2023/01/29 04:45:19;;;;;;;1.10;1.00;;;;;;;19.58;42.73;97738.41;10467286;28;20045;-75
2023/01/29 04:50:43;;;;;;;2.30;1.45;;;;;;;19.55;42.93;97735.22;10457510;28;20111;-75
2023/01/29 04:56:24;;;;;;;1.58;1.30;;;;;;;19.53;42.65;97734.72;10474826;28;20048;-75
2023/01/29 05:01:44;;;;;;;2.90;1.30;;;;;;;19.51;42.82;97723.41;10474532;28;20466;-75
2023/01/29 05:07:06;;;;;;;2.35;1.33;;;;;;;19.49;42.88;97712.09;10475216;28;20478;-75
2023/01/29 05:12:27;;;;;;;2.50;1.35;;;;;;;19.46;42.76;97706.47;10459954;28;20045;-76
2023/01/29 05:17:47;;;;;;;1.50;1.25;;;;;;;19.45;42.89;97715.72;10473868;28;20045;-75
2023/01/29 05:23:20;;;;;;;1.63;1.20;;;;;;;19.44;42.72;97724.91;10475320;28;20045;-75
2023/01/29 05:28:39;;;;;;;2.00;1.13;;;;;;;19.42;42.80;97711.69;10466960;28;20102;-75
2023/01/29 05:33:59;;;;;;;2.42;1.50;;;;;;;19.39;42.82;97715.00;10473283;28;20041;-75
2023/01/29 05:39:18;;;;;;;2.10;1.40;;;;;;;19.37;42.70;97719.91;10473125;28;20071;-75
2023/01/29 05:44:38;;;;;;;1.05;0.93;;;;;;;19.35;42.75;97722.91;10473926;28;20447;-75
2023/01/29 05:49:57;;;;;;;2.03;1.20;;;;;;;19.34;42.72;97715.09;10444760;28;20043;-75
2023/01/29 05:55:17;;;;;;;1.67;1.20;;;;;;;19.32;42.61;97718.09;10472420;28;20507;-75
2023/01/29 06:00:37;;;;;;;1.60;1.10;;;;;;;19.30;42.74;97697.88;10472619;28;20049;-75
2023/01/29 06:05:56;;;;;;;1.88;1.20;;;;;;;19.28;42.73;97710.91;10472101;28;20041;-75
2023/01/29 06:11:17;;;;;;;1.52;1.05;;;;;;;19.26;42.71;97697.69;10471907;28;20400;-75
2023/01/29 06:16:36;;;;;;;1.35;1.10;;;;;;;19.26;42.77;97680.69;10457729;28;20535;-76
2023/01/29 06:21:55;;;;;;;1.58;1.38;;;;;;;19.22;42.79;97669.66;10471429;28;20056;-76
2023/01/29 06:27:15;;;;;;;1.35;1.25;;;;;;;19.20;42.71;97661.06;10468654;28;20497;-75
2023/01/29 06:32:34;;;;;;;1.52;1.20;;;;;;;19.17;42.65;97662.47;10471901;28;20044;-75
2023/01/29 06:37:55;;;;;;;1.95;1.40;;;;;;;19.16;42.68;97660.88;10470757;28;20044;-75
2023/01/29 06:43:14;;;;;;;1.40;1.13;;;;;;;19.14;42.73;97660.38;10470603;28;20048;-76
2023/01/29 06:48:34;;;;;;;1.25;1.08;;;;;;;19.12;42.68;97665.28;10471357;28;20378;-75
2023/01/29 06:53:54;;;;;;;1.08;0.98;;;;;;;19.11;42.69;97665.56;10470022;28;20041;-75
2023/01/29 06:59:14;;;;;;;1.45;1.20;;;;;;;19.10;42.72;97667.47;10470943;28;20053;-75
2023/01/29 07:04:35;;;;;;;1.20;1.10;;;;;;;19.10;42.72;97688.28;10469783;28;20045;-75
2023/01/29 07:09:55;;;;;;;1.30;1.20;;;;;;;19.08;42.61;97693.97;10470502;28;20047;-75
2023/01/29 07:15:19;;;;;;;1.35;1.20;;;;;;;19.09;42.63;97689.38;10469493;28;20527;-75
2023/01/29 07:20:39;;;;;;;1.02;0.93;;;;;;;19.09;42.84;97694.78;10469196;28;20477;-75
2023/01/29 07:26:04;;;;;;;1.40;1.17;;;;;;;19.10;42.63;97707.97;10466996;28;20040;-75
2023/01/29 07:31:23;;;;;;;1.58;1.30;;;;;;;19.10;42.76;97710.69;10468792;28;20393;-75
2023/01/29 07:36:42;;;;;;;1.25;1.02;;;;;;;19.11;42.75;97723.09;10468632;28;20036;-76
2023/01/29 07:42:02;;;;;;;1.52;1.23;;;;;;;19.14;42.78;97733.28;10469529;28;20496;-76
2023/01/29 07:47:21;;;;;;;1.33;0.95;;;;;;;19.17;42.89;97740.81;10455638;28;20451;-76
2023/01/29 07:52:41;;;;;;;1.58;0.98;;;;;;;19.19;42.86;97734.28;10469131;28;20044;-76
2023/01/29 07:58:02;;;;;;;1.00;1.00;;;;;;;19.21;42.80;97726.69;10469042;28;20481;-76
2023/01/29 08:03:21;;;;;;;1.13;0.90;;;;;;;19.23;42.90;97733.41;10468029;28;20053;-76
2023/01/29 08:08:41;;;;;;;35.72;20.52;;;;;;;19.26;43.10;97726.59;10468914;28;20052;-76
2023/01/29 08:14:00;;;;;;;16.45;9.95;;;;;;;19.30;43.30;97754.63;10467721;28;20107;-76
2023/01/29 08:19:19;;;;;;;15.25;8.60;;;;;;;19.32;43.35;97750.50;10468713;28;20048;-76
2023/01/29 08:24:39;;;;;;;12.32;7.38;;;;;;;19.36;43.44;97767.72;10459430;28;20119;-76
2023/01/29 08:29:58;;;;;;;9.48;6.60;;;;;;;19.40;43.51;97767.94;10465669;28;20049;-76
2023/01/29 08:35:17;;;;;;;10.48;6.50;;;;;;;19.42;43.52;97770.34;10476508;28;20060;-76
2023/01/29 08:40:37;;;;;;;10.32;6.13;;;;;;;19.45;43.56;97773.25;10476250;28;20052;-76
2023/01/29 08:45:56;;;;;;;7.63;5.72;;;;;;;19.50;43.55;97761.53;10475169;28;20436;-76
2023/01/29 08:51:15;;;;;;;7.85;5.53;;;;;;;19.53;43.52;97744.72;10474856;28;20048;-76
2023/01/29 08:56:35;;;;;;;8.38;5.32;;;;;;;19.56;43.37;97757.63;10475716;28;20040;-76
2023/01/29 09:01:54;;;;;;;6.38;4.72;;;;;;;19.61;43.32;97745.94;10475528;28;20480;-76
2023/01/29 09:07:14;;;;;;;8.07;5.03;;;;;;;19.64;43.23;97737.19;10475237;28;20123;-76
2023/01/29 09:12:33;;;;;;;7.20;4.80;;;;;;;19.69;43.24;97747.91;10459936;28;20504;-76
2023/01/29 09:17:52;;;;;;;6.38;4.70;;;;;;;19.71;43.35;97746.53;10473921;28;20044;-76
2023/01/29 09:23:11;;;;;;;7.15;4.95;;;;;;;19.75;43.29;97734.00;10473638;28;20099;-76
2023/01/29 09:28:31;;;;;;;6.85;4.60;;;;;;;19.80;43.35;97737.72;10467501;28;20057;-76
2023/01/29 09:33:51;;;;;;;6.90;4.88;;;;;;;19.85;42.96;97741.09;10472470;28;20045;-76
2023/01/29 09:39:10;;;;;;;5.53;4.20;;;;;;;19.88;43.11;97732.41;10474229;28;20047;-76
2023/01/29 09:44:51;;;;;;;6.07;4.03;;;;;;;19.93;43.21;97735.00;10472902;28;20045;-76
2023/01/29 09:50:18;;;;;;;7.70;4.35;;;;;;;19.97;43.17;97737.09;10473729;28;20048;-76
2023/01/29 09:55:49;;;;;;;6.60;4.18;;;;;;;20.01;43.03;97752.41;10472641;28;20041;-76
2023/01/29 10:01:34;;;;;;;6.18;4.07;;;;;;;20.06;42.67;97743.38;10472497;28;20041;-76
2023/01/29 10:07:16;;;;;;;6.20;4.10;;;;;;;20.10;42.95;97741.66;10473700;28;20037;-76
2023/01/29 10:12:45;;;;;;;4.88;3.65;;;;;;;20.16;43.08;97743.16;10471969;28;20063;-76
2023/01/29 10:18:43;;;;;;;5.30;3.83;;;;;;;20.20;42.71;97711.69;10471601;28;20485;-76
2023/01/29 10:24:37;;;;;;;5.38;3.60;;;;;;;20.24;42.91;97707.25;10471507;28;20045;-76
2023/01/29 10:29:59;;;;;;;4.88;3.40;;;;;;;20.27;42.96;97685.00;10460105;28;20053;-76
2023/01/29 10:35:22;;;;;;;5.00;3.42;;;;;;;20.30;42.73;97681.66;10470972;28;20040;-75
2023/01/29 10:40:52;;;;;;;5.95;3.30;;;;;;;20.34;42.76;97681.84;10456770;28;20040;-76
2023/01/29 10:46:33;;;;;;;4.30;3.30;;;;;;;20.37;42.62;97675.06;10456464;28;20053;-76
2023/01/29 10:52:21;;;;;;;4.97;2.88;;;;;;;20.39;42.77;97683.66;10471195;28;20044;-76
2023/01/29 10:57:45;;;;;;;4.10;3.17;;;;;;;20.41;42.75;97666.00;10471056;28;20045;-75
2023/01/29 11:03:24;;;;;;;3.30;3.00;;;;;;;20.41;38.55;97649.75;10455800;28;20044;-75
2023/01/29 11:09:27;;;;;;;3.25;2.63;;;;;;;20.42;41.38;97640.50;10470631;28;20507;-75
2023/01/29 11:15:09;;;;;;;4.72;3.40;;;;;;;20.43;42.00;97638.63;10469575;28;20041;-75
2023/01/29 11:20:30;;;;;;;5.95;3.25;;;;;;;20.44;42.31;97630.19;10454312;28;20057;-75
2023/01/29 11:25:54;;;;;;;5.00;3.08;;;;;;;20.47;42.41;97626.06;10455183;28;20041;-75
2023/01/29 11:31:34;;;;;;;6.15;2.92;;;;;;;20.47;42.58;97623.38;10454855;28;20052;-75
2023/01/29 11:37:01;;;;;;;4.68;2.70;;;;;;;20.48;42.28;97616.81;10454793;28;20045;-75
2023/01/29 11:42:22;;;;;;;7.10;3.42;;;;;;;20.47;42.88;97615.25;10469582;28;20045;-75
2023/01/29 11:47:41;;;;;;;3.53;2.83;;;;;;;20.47;43.65;97594.38;10469806;28;20055;-75
2023/01/29 11:53:02;;;;;;;3.33;2.67;;;;;;;20.48;44.01;97587.06;10468412;28;20049;-75
2023/01/29 11:58:30;;;;;;;3.40;2.60;;;;;;;20.49;44.09;97580.53;10439780;28;20056;-75
2023/01/29 12:03:52;;;;;;;3.08;2.53;;;;;;;20.50;44.27;97568.59;10468377;28;20049;-75
2023/01/29 12:09:18;;;;;;;2.85;2.50;;;;;;;20.49;44.19;97556.97;10468116;28;20049;-75
2023/01/29 12:14:38;;;;;;;3.30;2.40;;;;;;;20.47;44.11;97567.31;10467761;28;20037;-75
2023/01/29 12:20:08;;;;;;;3.58;2.50;;;;;;;20.48;43.90;97543.75;10453633;28;20037;-75
2023/01/29 12:25:38;;;;;;;3.30;2.63;;;;;;;20.46;42.63;97530.53;10453731;28;20098;-75
2023/01/29 12:31:15;;;;;;;3.55;2.17;;;;;;;20.45;42.85;97520.81;10453684;28;20056;-74
2023/01/29 12:36:45;;;;;;;3.55;2.25;;;;;;;20.45;43.13;97520.03;10467527;28;20050;-75
2023/01/29 12:42:15;;;;;;;3.95;2.25;;;;;;;20.44;43.43;97513.00;10453651;28;20041;-74
2023/01/29 12:47:56;;;;;;;3.08;2.28;;;;;;;20.44;43.24;97510.31;10467318;28;20048;-74
2023/01/29 12:53:51;;;;;;;2.25;1.90;;;;;;;20.40;40.37;97504.72;10467141;28;20041;-75
2023/01/29 12:59:25;;;;;;;3.08;2.00;;;;;;;20.39;42.09;97499.63;10467262;28;20401;-76
2023/01/29 13:04:50;;;;;;;2.35;1.90;;;;;;;20.37;42.37;97508.06;10467987;28;20098;-76
2023/01/29 13:10:13;;;;;;;2.55;2.10;;;;;;;20.38;42.33;97495.31;10469519;28;20041;-75
2023/01/29 13:15:38;;;;;;;2.53;2.22;;;;;;;20.35;42.48;97497.53;10474252;28;20045;-75
2023/01/29 13:20:58;;;;;;;2.67;1.90;;;;;;;20.35;42.48;97499.47;10474142;28;20103;-75
2023/01/29 13:26:19;;;;;;;2.75;2.13;;;;;;;20.34;42.55;97476.19;10473113;28;20045;-75
2023/01/29 13:31:40;;;;;;;2.40;2.10;;;;;;;20.32;42.77;97473.81;10445601;28;20067;-75
2023/01/29 13:37:01;;;;;;;2.88;1.80;;;;;;;20.32;42.61;97467.59;10473570;28;20503;-76
2023/01/29 13:42:44;;;;;;;2.47;2.10;;;;;;;20.30;42.62;97453.59;10473254;28;20040;-75
2023/01/29 13:48:21;;;;;;;2.47;1.88;;;;;;;20.28;42.56;97461.22;10458891;28;20037;-75
2023/01/29 13:53:41;;;;;;;2.28;1.98;;;;;;;20.27;42.64;97446.91;10472849;28;20051;-75
2023/01/29 13:59:07;;;;;;;3.45;1.73;;;;;;;20.27;42.55;97443.41;10460414;28;20132;-75
2023/01/29 14:04:29;;;;;;;2.30;1.90;;;;;;;20.24;42.71;97444.81;10472536;28;20456;-74
2023/01/29 14:09:49;;;;;;;1.83;1.63;;;;;;;20.23;42.66;97443.22;10473083;28;20052;-75
2023/01/29 14:15:16;;;;;;;3.58;2.10;;;;;;;20.22;42.62;97455.16;10472837;28;20049;-75
2023/01/29 14:20:47;;;;;;;2.40;2.00;;;;;;;20.21;42.75;97450.84;10457325;28;20098;-75
2023/01/29 14:26:26;;;;;;;1.98;1.67;;;;;;;20.18;42.83;97454.19;10471195;28;20127;-75
2023/01/29 14:31:50;;;;;;;2.20;1.60;;;;;;;20.18;43.08;97451.47;10472171;28;20401;-75
2023/01/29 14:37:17;;;;;;;1.67;1.55;;;;;;;20.15;42.80;97444.00;10470953;28;20037;-75
2023/01/29 14:43:03;;;;;;;1.55;1.45;;;;;;;20.13;43.07;97432.66;10471718;28;20041;-75
2023/01/29 14:48:46;;;;;;;2.30;1.80;;;;;;;20.11;42.78;97424.06;10471617;28;20044;-75
2023/01/29 14:54:26;;;;;;;2.08;1.83;;;;;;;20.10;42.81;97422.47;10470902;28;20098;-75
2023/01/29 14:59:53;;;;;;;2.08;1.60;;;;;;;20.08;42.87;97432.81;10471328;28;20385;-75
2023/01/29 15:05:18;;;;;;;3.25;2.20;;;;;;;20.01;39.72;97429.75;10455910;28;20074;-75
2023/01/29 15:11:32;;;;;;;2.20;1.77;;;;;;;19.98;41.56;97425.78;10469836;28;20045;-75
2023/01/29 15:16:47;;;;;;;2.05;1.73;;;;;;;19.97;41.75;97429.56;10455880;28;20045;-75
2023/01/29 15:22:12;;;;;;;2.28;1.88;;;;;;;19.97;41.88;97417.97;10455102;28;20049;-75
2023/01/29 15:27:32;;;;;;;1.80;1.70;;;;;;;19.96;41.83;97411.78;10436881;28;20053;-75
2023/01/29 15:32:52;;;;;;;2.00;1.80;;;;;;;19.93;41.80;97407.78;10468047;28;20056;-75
2023/01/29 15:38:19;;;;;;;2.00;1.80;;;;;;;19.93;42.30;97406.97;10468732;28;20041;-75
2023/01/29 15:43:42;;;;;;;2.47;1.88;;;;;;;19.92;42.06;97410.81;10468723;28;20041;-75
2023/01/29 15:49:07;;;;;;;1.88;1.67;;;;;;;19.90;42.22;97407.63;10468466;28;20570;-75
2023/01/29 15:54:30;;;;;;;1.95;1.75;;;;;;;19.87;42.19;97403.59;10468131;28;20056;-75
2023/01/29 15:59:51;;;;;;;2.15;1.50;;;;;;;19.87;42.15;97409.00;10468195;28;20040;-75
2023/01/29 16:05:17;;;;;;;1.55;1.45;;;;;;;19.84;42.17;97404.25;10468072;28;20113;-74
2023/01/29 16:10:39;;;;;;;1.83;1.63;;;;;;;19.83;42.23;97408.03;10467905;28;20048;-75
2023/01/29 16:16:18;;;;;;;1.60;1.50;;;;;;;19.80;42.18;97388.94;10467831;28;20098;-75
2023/01/29 16:21:40;;;;;;;1.65;1.55;;;;;;;19.80;42.28;97402.44;10453620;28;20565;-75
2023/01/29 16:27:09;;;;;;;2.15;1.60;;;;;;;19.76;42.25;97380.66;10450860;28;20050;-75
2023/01/29 16:32:29;;;;;;;1.98;1.67;;;;;;;19.73;42.27;97382.06;10453456;28;20041;-75
2023/01/29 16:37:49;;;;;;;2.53;1.60;;;;;;;19.73;42.32;97392.09;10467507;28;20045;-75
2023/01/29 16:43:18;;;;;;;1.60;1.50;;;;;;;19.70;42.15;97392.69;10453686;28;20045;-75
2023/01/29 16:48:37;;;;;;;2.42;1.88;;;;;;;19.69;42.09;97400.00;10475371;28;20041;-75
2023/01/29 16:53:58;;;;;;;1.52;1.42;;;;;;;19.68;42.19;97409.22;10475957;28;20048;-75
2023/01/29 16:59:21;;;;;;;1.65;1.55;;;;;;;19.66;42.27;97397.94;10474945;28;20055;-75
2023/01/29 17:04:41;;;;;;;2.90;1.50;;;;;;;19.63;42.27;97393.13;10474622;28;20048;-75
2023/01/29 17:10:03;;;;;;;1.95;1.60;;;;;;;19.62;42.33;97402.34;10475140;28;20120;-75
2023/01/29 17:15:29;;;;;;;2.17;1.30;;;;;;;19.62;42.16;97405.06;10475073;28;20041;-75
2023/01/29 17:20:49;;;;;;;1.52;1.38;;;;;;;19.61;42.50;97410.78;10474027;28;20040;-75
2023/01/29 17:26:12;;;;;;;1.67;1.58;;;;;;;19.61;42.21;97405.38;10473401;28;20044;-75
2023/01/29 17:31:31;;;;;;;1.42;1.33;;;;;;;19.62;42.28;97409.66;10473607;28;20094;-75
2023/01/29 17:36:51;;;;;;;3.83;3.17;;;;;;;19.46;38.90;97396.53;10473350;28;20045;-75
2023/01/29 17:42:12;;;;;;;2.75;2.40;;;;;;;19.50;40.81;97384.00;10445085;28;20115;-76
2023/01/29 17:47:32;;;;;;;2.95;2.65;;;;;;;19.53;40.98;97383.38;10473077;28;20040;-76
2023/01/29 17:52:52;;;;;;;3.58;2.20;;;;;;;19.55;41.21;97367.66;10473859;28;20052;-74
2023/01/29 17:58:20;;;;;;;4.60;2.00;;;;;;;19.59;41.42;97357.03;10471734;28;20095;-76
2023/01/29 18:03:40;;;;;;;3.60;2.20;;;;;;;19.61;41.47;97351.31;10458775;28;20048;-77
2023/01/29 18:09:01;;;;;;;2.65;1.90;;;;;;;19.64;41.60;97334.44;10473798;28;20107;-76
2023/01/29 18:14:20;;;;;;;5.07;2.17;;;;;;;19.65;41.89;97319.84;10472142;28;20045;-77
2023/01/29 18:19:40;;;;;;;4.32;1.92;;;;;;;19.66;41.76;97310.63;10457899;28;20041;-76
2023/01/29 18:24:59;;;;;;;2.67;2.00;;;;;;;19.69;42.01;97310.00;10471625;28;20075;-77
2023/01/29 18:30:19;;;;;;;4.43;1.80;;;;;;;19.71;41.94;97297.78;10459434;28;20053;-77
2023/01/29 18:35:38;;;;;;;2.47;1.80;;;;;;;19.74;42.17;97313.41;10470996;28;20041;-76
2023/01/29 18:41:05;;;;;;;3.10;1.90;;;;;;;19.76;42.19;97302.28;10456925;28;20094;-76
2023/01/29 18:46:24;;;;;;;4.10;1.95;;;;;;;19.78;42.24;97308.16;10443087;28;20052;-75
2023/01/29 18:51:44;;;;;;;2.45;1.80;;;;;;;19.81;42.38;97309.44;10471394;28;20099;-76
2023/01/29 18:57:03;;;;;;;3.08;1.55;;;;;;;19.83;42.30;97305.31;10470378;28;20055;-75
2023/01/29 19:02:23;;;;;;;2.85;2.10;;;;;;;19.84;42.78;97304.19;10455978;28;20056;-75
2023/01/29 19:07:42;;;;;;;3.50;1.95;;;;;;;19.86;43.17;97307.38;10470698;28;20048;-74
2023/01/29 19:13:01;;;;;;;2.70;1.80;;;;;;;19.85;43.08;97313.88;10470380;28;20040;-74
2023/01/29 19:18:22;;;;;;;4.18;2.13;;;;;;;19.88;43.56;97301.69;10456633;28;20110;-74
2023/01/29 19:23:42;;;;;;;3.47;2.10;;;;;;;19.88;43.77;97294.34;10470306;28;20051;-75
2023/01/29 19:29:02;;;;;;;5.47;1.83;;;;;;;19.89;44.64;97298.63;10445313;28;20455;-75
2023/01/29 19:34:22;;;;;;;3.83;2.10;;;;;;;19.91;44.59;97311.84;10471369;28;20045;-75
2023/01/29 19:39:44;;;;;;;4.13;2.15;;;;;;;19.92;45.11;97302.63;10456050;28;20164;-82
2023/01/29 19:45:04;;;;;;;3.70;2.20;;;;;;;19.92;45.25;97303.44;10441511;28;20480;-81
2023/01/29 19:50:23;;;;;;;5.63;2.00;;;;;;;19.92;45.44;97300.72;10468964;28;20110;-82
2023/01/29 19:55:43;;;;;;;2.65;1.92;;;;;;;19.93;45.50;97302.31;10470145;28;20037;-81
2023/01/29 20:01:06;;;;;;;4.75;1.90;;;;;;;19.95;45.97;97302.81;10441416;28;20045;-82
2023/01/29 20:06:29;;;;;;;3.15;1.92;;;;;;;19.98;46.05;97289.78;10454772;28;20094;-81
2023/01/29 20:11:49;;;;;;;3.60;2.00;;;;;;;19.99;46.48;97288.66;10468049;28;20048;-79
2023/01/29 20:17:08;;;;;;;2.90;2.03;;;;;;;20.02;46.63;97282.63;10469297;28;20053;-79
2023/01/29 20:22:28;;;;;;;5.00;2.00;;;;;;;-146.19;100.00;65364.44;10476959;28;20045;-79
2023/01/29 20:27:47;;;;;;;4.95;1.90;;;;;;;-146.19;100.00;65364.44;10472374;28;20049;-82
2023/01/29 20:33:10;;;;;;;3.30;1.48;;;;;;;-146.19;100.00;65364.44;10462528;28;20048;-82
2023/01/29 20:38:32;;;;;;;3.75;1.80;;;;;;;-146.19;100.00;65364.44;10476272;28;20128;-80
2023/01/29 20:43:52;;;;;;;3.13;1.85;;;;;;;20.02;46.63;97282.63;10476506;28;20048;-76
2023/01/29 20:49:11;;;;;;;2.45;1.90;;;;;;;20.02;46.63;97282.63;10461375;28;20052;-76
2023/01/29 20:54:32;;;;;;;4.32;1.70;;;;;;;-146.19;100.00;65364.44;10475248;28;20088;-76
2023/01/29 20:59:51;;;;;;;4.28;1.80;;;;;;;-146.19;100.00;65364.44;10475984;28;20496;-77
2023/01/29 21:05:12;;;;;;;5.22;2.03;;;;;;;-146.19;100.00;65364.44;10475021;28;20055;-75
2023/01/29 21:10:32;;;;;;;4.88;1.60;;;;;;;-146.19;100.00;65364.44;10460428;28;20489;-74
2023/01/29 21:15:51;;;;;;;3.80;1.60;;;;;;;-146.19;100.00;65364.44;10475254;28;20041;-74
2023/01/29 21:21:11;;;;;;;4.30;1.80;;;;;;;-146.19;100.00;65364.44;10460035;28;20041;-74
2023/01/29 21:26:30;;;;;;;3.20;1.90;;;;;;;-146.19;100.00;65364.44;10473314;28;20056;-75
2023/01/29 21:31:50;;;;;;;3.58;1.50;;;;;;;-146.19;100.00;65364.44;10473318;28;20048;-75
2023/01/29 21:37:10;;;;;;;2.72;1.63;;;;;;;-146.19;100.00;65364.44;10459505;28;20511;-75
2023/01/29 21:48:09;;;;;;;2.90;1.75;;;;;;;-146.19;100.00;65364.44;10473044;28;20086;-75
2023/01/29 21:53:28;;;;;;;2.85;1.80;;;;;;;-146.19;100.00;65364.44;10473112;28;20498;-75
2023/01/29 21:58:48;;;;;;;2.70;1.63;;;;;;;-146.19;100.00;65364.44;10474212;28;20048;-75
2023/01/29 22:04:08;;;;;;;3.63;1.75;;;;;;;-146.19;100.00;65364.44;10473417;28;20048;-74
2023/01/29 22:09:28;;;;;;;2.45;1.80;;;;;;;-146.19;100.00;65364.44;10473181;28;20404;-75
2023/01/29 22:14:47;;;;;;;3.58;1.77;;;;;;;-146.19;100.00;65364.44;10457991;28;20504;-75
2023/01/29 22:20:12;;;;;;;2.05;1.45;;;;;;;-146.19;100.00;65364.44;10471893;28;20463;-75
2023/01/29 22:25:32;;;;;;;1.98;1.70;;;;;;;-146.19;100.00;65364.44;10458158;28;20045;-75
2023/01/29 22:30:52;;;;;;;3.40;1.80;;;;;;;-146.19;100.00;65364.44;10458951;28;20057;-74
2023/01/29 22:36:12;;;;;;;2.28;1.75;;;;;;;20.37;48.73;97120.31;10471183;28;20258;-74
2023/01/29 22:41:32;;;;;;;1.80;1.60;;;;;;;20.37;48.92;97102.16;10456885;28;20385;-74
2023/01/29 22:46:51;;;;;;;2.53;1.80;;;;;;;20.35;48.97;97083.53;10456932;28;20041;-74
2023/01/29 22:52:11;;;;;;;3.38;1.73;;;;;;;20.34;49.07;97081.94;10456187;28;20040;-75
2023/01/29 22:57:31;;;;;;;1.90;1.58;;;;;;;20.35;48.98;97080.84;10470355;28;20048;-74
2023/01/29 23:02:51;;;;;;;3.83;1.80;;;;;;;20.33;49.18;97053.31;10471115;28;20052;-75
2023/01/29 23:08:10;;;;;;;2.22;1.60;;;;;;;20.32;49.26;97051.69;10469909;28;20045;-75
2023/01/29 23:13:30;;;;;;;3.00;1.75;;;;;;;20.32;49.05;97040.09;10470643;28;20381;-75
2023/01/29 23:18:51;;;;;;;2.22;1.60;;;;;;;20.30;49.12;97029.59;10470490;28;20041;-75
2023/01/29 23:24:10;;;;;;;1.70;1.52;;;;;;;20.30;49.31;97012.56;10455616;28;20443;-75
2023/01/29 23:29:30;;;;;;;2.40;1.52;;;;;;;20.27;49.28;97014.03;10460318;28;20057;-75
2023/01/29 23:34:49;;;;;;;3.67;1.50;;;;;;;20.26;49.31;96998.88;10469916;28;20048;-75
2023/01/29 23:40:09;;;;;;;1.98;1.42;;;;;;;20.25;49.30;96983.78;10468828;28;20098;-75
2023/01/29 23:45:29;;;;;;;1.98;1.60;;;;;;;20.24;49.62;96960.56;10454652;28;20049;-75
2023/01/29 23:50:49;;;;;;;2.83;1.55;;;;;;;20.22;49.31;96949.25;10468698;28;20046;-75
2023/01/29 23:56:09;;;;;;;2.10;1.60;;;;;;;20.21;49.80;96936.88;10468747;28;20095;-75
